Time;durP1;ratioP1;P1;durP2;ratioP2;P2;SDS_P1;SDS_P2;PMS_P1;PMS_P2;Temp;Humidity;BMP_temperature;BMP_pressure;BME280_temperature;BME280_humidity;BME280_pressure;Samples;Min_cycle;Max_cycle;Signal;HPM_P1;HPM_P2
2022/10/03 00:00:01;;;;;;;3.43;2.30;;;18.30;68.00;19.30;101667.00;;;;4971350;28;20169;-45
2022/10/03 00:03:09;;;;;;;2.50;2.20;;;18.20;67.90;19.30;101682.00;;;;4970718;28;20292;-45
2022/10/03 00:06:32;;;;;;;2.23;2.03;;;18.30;68.10;19.30;101655.00;;;;4971606;28;20243;-46
2022/10/03 00:09:26;;;;;;;3.43;2.47;;;18.20;68.00;19.20;101686.00;;;;4916983;29;20186;-45
2022/10/03 00:12:30;;;;;;;3.20;2.30;;;18.20;68.00;19.20;101688.00;;;;4970774;28;20161;-45
2022/10/03 00:15:27;;;;;;;2.40;2.20;;;18.20;68.00;19.20;101690.00;;;;4970286;28;20180;-46
2022/10/03 00:18:18;;;;;;;2.43;2.20;;;18.20;68.00;19.20;101685.00;;;;4958093;28;20223;-45
2022/10/03 00:21:00;;;;;;;2.90;2.07;;;18.20;68.10;19.20;101701.00;;;;4970814;28;20340;-46
2022/10/03 00:23:47;;;;;;;2.10;1.90;;;18.20;68.10;19.20;101694.00;;;;4970251;28;20916;-46
2022/10/03 00:26:33;;;;;;;3.10;2.20;;;18.20;68.20;19.20;101696.00;;;;4971102;28;20589;-46
2022/10/03 00:29:31;;;;;;;2.40;2.10;;;18.10;68.00;19.10;101704.00;;;;4970385;28;20176;-46
2022/10/03 00:32:06;;;;;;;2.50;2.10;;;18.10;68.10;19.10;101703.00;;;;4923166;28;20200;-45
2022/10/03 00:34:50;;;;;;;2.40;2.20;;;18.10;68.00;19.10;101700.00;;;;4971477;28;20526;-47
2022/10/03 00:37:48;;;;;;;2.30;2.10;;;18.00;68.00;19.10;101702.00;;;;4971471;28;20254;-46
2022/10/03 00:40:55;;;;;;;2.20;2.00;;;18.10;68.10;19.10;101706.00;;;;4971309;28;20174;-45
2022/10/03 00:44:09;;;;;;;2.37;2.13;;;18.10;68.10;19.00;101699.00;;;;4970543;28;20527;-47
2022/10/03 00:47:52;;;;;;;2.20;2.00;;;18.00;68.00;19.00;101704.00;;;;4971302;28;20279;-46
2022/10/03 00:50:39;;;;;;;2.30;2.10;;;18.00;68.10;19.00;101704.00;;;;4917051;29;20799;-46
2022/10/03 00:53:31;;;;;;;2.20;2.00;;;18.00;68.20;19.00;101714.00;;;;4966799;28;20185;-45
2022/10/03 00:56:20;;;;;;;3.10;2.10;;;18.00;68.50;19.00;101712.00;;;;4970767;28;20707;-44
2022/10/03 00:59:31;;;;;;;3.37;2.20;;;18.00;68.30;19.00;101699.00;;;;4971933;28;20263;-45
2022/10/03 01:01:56;;;;;;;3.37;2.20;;;18.00;68.20;19.00;101693.00;;;;4970634;28;20176;-46
2022/10/03 01:04:49;;;;;;;2.97;2.10;;;18.00;68.00;19.00;101721.00;;;;4969100;28;20179;-46
2022/10/03 01:07:45;;;;;;;3.80;2.10;;;18.00;67.90;19.00;101724.00;;;;4970709;28;20223;-46
2022/10/03 01:10:26;;;;;;;2.30;2.10;;;17.90;67.70;19.00;101733.00;;;;4954483;28;20171;-45
2022/10/03 01:13:32;;;;;;;2.97;2.47;;;18.00;67.80;19.00;101730.00;;;;4970644;28;20168;-45
2022/10/03 01:16:17;;;;;;;2.33;2.13;;;17.90;67.60;19.00;101724.00;;;;4969383;28;20611;-46
2022/10/03 01:19:18;;;;;;;2.60;2.37;;;17.90;67.60;19.00;101739.00;;;;4969030;28;20172;-45
2022/10/03 01:22:11;;;;;;;2.60;2.40;;;17.90;67.40;18.90;101725.00;;;;4969858;28;20587;-46
2022/10/03 01:24:54;;;;;;;2.70;2.30;;;17.90;67.30;18.90;101728.00;;;;4970458;28;20255;-46
2022/10/03 01:30:56;;;;;;;3.53;2.27;;;17.90;67.10;18.90;101725.00;;;;4969600;28;20188;-47
2022/10/03 01:33:26;;;;;;;2.53;2.33;;;17.80;67.10;18.90;101724.00;;;;4953339;28;20206;-45
2022/10/03 01:36:06;;;;;;;5.57;2.40;;;17.80;67.10;18.80;101728.00;;;;4970466;28;20292;-46
2022/10/03 01:38:56;;;;;;;3.60;2.63;;;17.80;67.10;18.90;101722.00;;;;4968885;28;20174;-45
2022/10/03 01:41:59;;;;;;;3.83;2.37;;;17.80;67.00;18.80;101725.00;;;;4970187;28;20177;-47
2022/10/03 01:44:42;;;;;;;3.07;2.50;;;17.80;67.00;18.80;101730.00;;;;4970316;28;20180;-44
2022/10/03 01:47:37;;;;;;;4.00;2.30;;;17.80;66.90;18.80;101729.00;;;;4970073;28;20175;-44
2022/10/03 01:50:20;;;;;;;3.57;2.27;;;17.80;66.80;18.70;101728.00;;;;4965390;28;20197;-46
2022/10/03 01:53:13;;;;;;;2.60;2.40;;;17.70;67.60;18.70;101725.00;;;;4969630;28;20179;-44
2022/10/03 01:56:09;;;;;;;2.40;2.20;;;17.70;66.70;18.70;101729.00;;;;4968773;28;20256;-45
2022/10/03 01:59:01;;;;;;;2.80;2.60;;;17.70;66.60;18.70;101733.00;;;;4968945;28;20174;-45
2022/10/03 02:02:00;;;;;;;2.60;2.30;;;17.70;66.50;18.70;101737.00;;;;4969805;28;20165;-45
2022/10/03 02:04:58;;;;;;;3.30;2.60;;;17.70;66.40;18.70;101724.00;;;;4968175;28;20180;-44
2022/10/03 02:07:57;;;;;;;2.50;2.30;;;17.70;66.40;18.70;101744.00;;;;4969157;28;20223;-46
2022/10/03 02:10:49;;;;;;;3.17;2.67;;;17.70;66.40;18.60;101735.00;;;;4968496;28;20309;-44
2022/10/03 02:13:27;;;;;;;3.30;2.60;;;17.60;66.20;18.60;101746.00;;;;4969578;28;20556;-45
2022/10/03 02:16:19;;;;;;;2.60;2.40;;;17.60;66.20;18.60;101759.00;;;;4969262;28;20232;-47
2022/10/03 02:18:54;;;;;;;3.67;2.40;;;17.60;66.10;18.60;101757.00;;;;4969523;28;20225;-46
2022/10/03 02:21:28;;;;;;;3.00;2.70;;;17.60;66.30;18.60;101756.00;;;;4968485;28;20219;-46
2022/10/03 02:24:16;;;;;;;3.83;2.50;;;17.60;66.20;18.60;101767.00;;;;4968445;28;20160;-42
2022/10/03 02:27:24;;;;;;;2.70;2.50;;;17.60;65.90;18.60;101763.00;;;;4969484;28;20227;-46
2022/10/03 02:30:24;;;;;;;2.60;2.40;;;17.60;66.00;18.60;101762.00;;;;4968709;28;20167;-46
2022/10/03 02:33:36;;;;;;;4.03;2.60;;;17.50;65.90;18.50;101760.00;;;;4955718;28;20632;-44
2022/10/03 02:36:34;;;;;;;2.40;2.20;;;17.50;65.80;18.50;101758.00;;;;4969635;28;20270;-47
2022/10/03 02:39:44;;;;;;;2.57;2.37;;;17.50;65.80;18.50;101754.00;;;;4968463;28;20199;-45
2022/10/03 02:42:37;;;;;;;2.97;2.50;;;17.50;65.80;18.50;101762.00;;;;4969738;28;20175;-45
2022/10/03 02:45:36;;;;;;;2.60;2.40;;;17.50;65.70;18.40;101759.00;;;;4967765;28;20702;-46
2022/10/03 02:48:31;;;;;;;2.60;2.40;;;17.50;65.70;18.40;101765.00;;;;4968144;28;20607;-44
2022/10/03 02:51:38;;;;;;;2.50;2.30;;;17.50;65.60;18.40;101760.00;;;;4972341;28;20182;-45
2022/10/03 02:54:46;;;;;;;2.53;2.30;;;17.50;65.60;18.40;101744.00;;;;4973784;28;20192;-45
2022/10/03 02:57:45;;;;;;;2.40;2.20;;;17.40;65.50;18.30;101770.00;;;;4972879;28;20193;-45
2022/10/03 03:00:23;;;;;;;2.40;2.20;;;17.40;65.40;18.30;101763.00;;;;4972106;28;20220;-46
2022/10/03 03:03:22;;;;;;;2.60;2.40;;;17.40;65.40;18.30;101766.00;;;;4973213;28;20181;-44
2022/10/03 03:06:40;;;;;;;2.60;2.40;;;17.40;65.50;18.30;101765.00;;;;4972947;28;20650;-45
2022/10/03 03:09:35;;;;;;;2.30;2.20;;;17.40;65.40;18.30;101766.00;;;;4972683;28;20161;-45
2022/10/03 03:12:41;;;;;;;2.53;2.33;;;17.30;65.40;18.30;101778.00;;;;4971828;28;20220;-45
2022/10/03 03:15:31;;;;;;;2.80;2.30;;;17.30;65.30;18.20;101771.00;;;;4971740;28;20189;-46
2022/10/03 03:18:31;;;;;;;2.23;2.03;;;17.30;65.20;18.20;101782.00;;;;4972805;28;20160;-45
2022/10/03 03:21:19;;;;;;;2.20;1.90;;;17.30;65.20;18.20;101783.00;;;;4973284;28;20596;-45
2022/10/03 03:23:54;;;;;;;2.37;2.17;;;17.30;65.30;18.20;101782.00;;;;4971589;28;20669;-46
2022/10/03 03:26:48;;;;;;;3.77;2.57;;;17.30;65.30;18.20;101779.00;;;;4972536;28;20211;-45
2022/10/03 03:29:35;;;;;;;3.97;2.20;;;17.30;65.20;18.20;101791.00;;;;4974601;28;20252;-45
2022/10/03 03:32:29;;;;;;;3.17;2.03;;;17.30;65.20;18.20;101789.00;;;;4972468;28;20172;-46
2022/10/03 03:35:13;;;;;;;4.67;2.10;;;17.20;65.10;18.20;101794.00;;;;4972249;28;20170;-46
2022/10/03 03:38:00;;;;;;;2.40;2.20;;;17.20;65.10;18.20;101794.00;;;;4973079;28;20183;-45
2022/10/03 03:41:05;;;;;;;2.83;2.27;;;17.20;65.20;18.20;101798.00;;;;4972265;28;20180;-46
2022/10/03 03:44:05;;;;;;;2.17;1.97;;;17.20;65.20;18.20;101789.00;;;;4960851;28;20679;-45
2022/10/03 03:46:59;;;;;;;2.73;2.20;;;17.20;65.20;18.20;101785.00;;;;4961238;28;20201;-45
2022/10/03 03:49:57;;;;;;;4.13;1.90;;;17.20;65.30;18.10;101782.00;;;;4953226;29;20173;-46
2022/10/03 03:53:08;;;;;;;5.80;2.50;;;17.20;65.10;18.20;101764.00;;;;4952262;29;20222;-46
2022/10/03 03:55:59;;;;;;;4.13;2.10;;;17.20;65.20;18.10;101792.00;;;;4951712;29;20228;-47
2022/10/03 03:58:44;;;;;;;4.63;2.40;;;17.10;65.00;18.10;101800.00;;;;4952037;29;20164;-47
2022/10/03 04:02:28;;;;;;;4.93;2.20;;;17.10;65.00;18.10;101800.00;;;;4950845;28;20195;-45
2022/10/03 04:05:12;;;;;;;3.53;2.30;;;17.10;64.90;18.10;101799.00;;;;4893871;29;20609;-46
2022/10/03 04:08:11;;;;;;;3.67;2.13;;;17.10;64.90;18.10;101789.00;;;;4949405;28;20210;-44
2022/10/03 04:11:06;;;;;;;4.90;2.20;;;17.10;65.00;18.10;101794.00;;;;4953454;29;20397;-45
2022/10/03 04:14:03;;;;;;;3.07;2.40;;;17.00;64.80;18.10;101802.00;;;;4951299;29;20571;-45
2022/10/03 04:20:02;;;;;;;2.87;2.20;;;17.00;64.70;18.00;101792.00;;;;4951765;29;20467;-46
2022/10/03 04:23:10;;;;;;;2.70;2.10;;;17.10;64.90;18.00;101800.00;;;;4951813;29;20185;-44
2022/10/03 04:26:09;;;;;;;4.40;2.10;;;17.00;64.90;18.00;101812.00;;;;4968442;28;20580;-45
2022/10/03 04:29:29;;;;;;;3.80;2.00;;;17.00;64.80;18.00;101811.00;;;;4966064;28;20269;-45
2022/10/03 04:32:10;;;;;;;2.93;2.00;;;17.00;64.80;18.00;101818.00;;;;4951696;29;20172;-45
2022/10/03 04:35:25;;;;;;;3.50;2.20;;;17.00;64.80;18.00;101814.00;;;;4952276;29;20178;-46
2022/10/03 04:38:12;;;;;;;2.70;2.13;;;17.00;64.90;17.90;101810.00;;;;4952591;28;20175;-44
2022/10/03 04:41:04;;;;;;;2.37;2.00;;;17.00;64.80;17.90;101808.00;;;;4952205;29;20194;-46
2022/10/03 04:43:53;;;;;;;2.37;2.10;;;17.00;64.90;17.90;101813.00;;;;4970617;28;20559;-45
2022/10/03 04:46:29;;;;;;;3.33;1.90;;;16.90;64.80;17.90;101810.00;;;;4967327;28;20844;-46
2022/10/03 04:49:15;;;;;;;4.00;2.30;;;16.90;64.70;17.90;101811.00;;;;4967082;28;20650;-44
2022/10/03 04:51:53;;;;;;;3.30;1.90;;;16.90;64.70;17.90;101810.00;;;;4950832;29;20662;-45
2022/10/03 04:54:48;;;;;;;3.10;2.07;;;16.90;64.80;17.90;101797.00;;;;4950813;29;20151;-45
2022/10/03 04:57:34;;;;;;;2.00;1.83;;;16.90;64.80;17.90;101807.00;;;;4967622;28;20872;-45
2022/10/03 05:00:13;;;;;;;2.67;2.03;;;16.90;64.80;17.90;101806.00;;;;4950389;29;20189;-46
2022/10/03 05:02:44;;;;;;;2.30;2.10;;;16.90;64.90;17.80;101811.00;;;;4967827;28;20745;-45
2022/10/03 05:05:46;;;;;;;3.17;2.30;;;16.90;64.90;17.90;101808.00;;;;4950195;29;20296;-46
2022/10/03 05:09:07;;;;;;;2.53;2.10;;;16.80;64.80;17.80;101808.00;;;;4944594;28;20185;-46
2022/10/03 05:11:48;;;;;;;6.70;2.40;;;16.80;64.80;17.80;101728.00;;;;4910885;29;20711;-45
2022/10/03 05:14:48;;;;;;;3.57;2.40;;;16.90;64.90;17.80;101813.00;;;;4910333;29;20186;-46
2022/10/03 05:17:27;;;;;;;4.33;2.20;;;16.80;64.80;17.80;101808.00;;;;4942246;29;20185;-46
2022/10/03 05:20:14;;;;;;;3.93;2.33;;;16.80;64.80;17.80;101810.00;;;;4968106;28;20183;-45
2022/10/03 05:22:49;;;;;;;4.20;2.30;;;16.80;64.80;17.80;101811.00;;;;4952146;29;20245;-45
2022/10/03 05:25:38;;;;;;;4.00;2.30;;;16.80;64.80;17.80;101820.00;;;;4966161;28;20210;-45
2022/10/03 05:28:43;;;;;;;5.40;2.33;;;16.80;64.80;17.80;101823.00;;;;4950290;29;20201;-45
2022/10/03 05:31:25;;;;;;;4.30;2.40;;;16.80;64.90;17.80;101829.00;;;;4944442;29;20185;-45
2022/10/03 05:34:14;;;;;;;6.40;2.40;;;16.70;64.90;17.80;101827.00;;;;4951380;29;20647;-45
2022/10/03 05:37:14;;;;;;;3.87;2.40;;;16.70;64.90;17.80;101830.00;;;;4949926;29;20671;-45
2022/10/03 05:40:17;;;;;;;5.40;2.10;;;16.70;64.90;17.70;101821.00;;;;4950578;29;20228;-45
2022/10/03 05:42:52;;;;;;;3.23;2.40;;;16.70;65.00;17.70;101836.00;;;;4950720;29;20166;-45
2022/10/03 05:45:35;;;;;;;4.17;2.30;;;16.70;65.10;17.70;101822.00;;;;4950872;29;20237;-46
2022/10/03 05:48:06;;;;;;;3.37;2.33;;;16.70;65.10;17.70;101842.00;;;;4950064;29;20183;-45
2022/10/03 05:50:35;;;;;;;4.63;2.20;;;16.70;65.10;17.70;101844.00;;;;4951034;29;20166;-46
2022/10/03 05:53:13;;;;;;;4.50;2.20;;;16.70;65.10;17.70;101826.00;;;;4951333;29;20217;-47
2022/10/03 05:56:01;;;;;;;5.30;2.10;;;16.70;65.00;17.70;101844.00;;;;4949346;28;20185;-46
2022/10/03 05:58:35;;;;;;;4.57;2.30;;;16.70;65.00;17.70;101848.00;;;;4966193;28;20177;-46
2022/10/03 06:01:42;;;;;;;5.40;2.33;;;16.70;65.10;17.70;101849.00;;;;4950910;29;20175;-45
2022/10/03 06:05:22;;;;;;;3.87;2.50;;;16.60;65.10;17.70;101854.00;;;;4949464;29;20275;-46
2022/10/03 06:08:15;;;;;;;3.93;2.40;;;16.60;65.10;17.60;101870.00;;;;4898341;29;20215;-46
2022/10/03 06:11:13;;;;;;;2.73;2.30;;;16.60;65.20;17.60;101862.00;;;;4949723;28;20745;-46
2022/10/03 06:14:16;;;;;;;2.93;2.00;;;16.60;65.20;17.60;101864.00;;;;4967150;28;20241;-45
2022/10/03 06:17:36;;;;;;;3.23;2.10;;;16.60;65.10;17.60;101863.00;;;;4950676;28;20197;-46
2022/10/03 06:20:40;;;;;;;2.73;2.00;;;16.60;65.20;17.60;101861.00;;;;4949756;29;20158;-51
2022/10/03 06:24:04;;;;;;;2.77;2.20;;;16.60;65.20;17.60;101865.00;;;;4949767;29;20529;-44
2022/10/03 06:26:59;;;;;;;2.33;2.10;;;16.60;65.20;17.60;101869.00;;;;4967340;28;20219;-44
2022/10/03 06:30:04;;;;;;;3.60;2.23;;;16.60;65.20;17.50;101862.00;;;;4947259;29;20193;-44
2022/10/03 06:32:53;;;;;;;3.77;2.30;;;16.60;65.20;17.50;101869.00;;;;4950728;28;20162;-45
2022/10/03 06:36:09;;;;;;;2.97;2.20;;;16.60;65.30;17.60;101861.00;;;;4948740;29;20702;-45
2022/10/03 06:39:15;;;;;;;3.50;2.20;;;16.60;65.20;17.50;101871.00;;;;4950642;28;20181;-44
2022/10/03 06:42:23;;;;;;;3.10;2.10;;;16.50;65.30;17.50;101871.00;;;;4950515;28;20179;-45
2022/10/03 06:45:22;;;;;;;2.27;2.03;;;16.50;65.30;17.50;101877.00;;;;4949108;29;20639;-44
2022/10/03 06:48:32;;;;;;;3.00;2.00;;;16.50;65.30;17.50;101872.00;;;;4950435;28;20413;-46
2022/10/03 06:51:50;;;;;;;3.13;2.10;;;16.50;65.30;17.50;101883.00;;;;4950722;28;20180;-46
2022/10/03 06:54:56;;;;;;;2.37;2.13;;;16.50;65.40;17.50;101875.00;;;;4950480;28;20237;-46
2022/10/03 06:57:59;;;;;;;2.30;2.10;;;16.50;65.30;17.50;101873.00;;;;4950088;28;20185;-45
2022/10/03 07:01:01;;;;;;;2.37;2.10;;;16.50;65.50;17.40;101885.00;;;;4949891;28;20549;-45
2022/10/03 07:04:05;;;;;;;1.90;1.80;;;16.50;65.40;17.40;101875.00;;;;4967516;28;20575;-46
2022/10/03 07:07:09;;;;;;;2.53;2.10;;;16.50;65.50;17.40;101879.00;;;;4948347;29;20251;-45
2022/10/03 07:10:09;;;;;;;2.20;2.00;;;16.50;65.40;17.40;101884.00;;;;4950089;29;20543;-45
2022/10/03 07:13:25;;;;;;;2.00;1.80;;;16.40;65.40;17.40;101888.00;;;;4950320;28;20216;-45
2022/10/03 07:16:24;;;;;;;3.43;2.00;;;16.40;65.40;17.40;101880.00;;;;4948544;29;20269;-45
2022/10/03 07:19:21;;;;;;;2.33;2.07;;;16.40;65.40;17.40;101880.00;;;;4968328;28;20165;-45
2022/10/03 07:22:23;;;;;;;1.80;1.70;;;16.50;65.50;17.40;101900.00;;;;4966885;28;20151;-46
2022/10/03 07:25:09;;;;;;;2.27;2.07;;;16.40;65.50;17.30;101893.00;;;;4949817;29;20212;-46
2022/10/03 07:28:23;;;;;;;2.57;1.90;;;16.40;65.50;17.40;101905.00;;;;4948714;29;20173;-45
2022/10/03 07:31:27;;;;;;;2.53;2.00;;;16.40;65.50;17.40;101905.00;;;;4969595;28;20546;-45
2022/10/03 07:34:28;;;;;;;2.30;1.90;;;16.50;65.60;17.30;101903.00;;;;4950065;28;20546;-45
2022/10/03 07:40:42;;;;;;;2.10;1.90;;;16.40;65.60;17.30;101897.00;;;;4952541;29;20189;-46
2022/10/03 07:43:39;;;;;;;2.03;1.83;;;16.40;65.50;17.30;101908.00;;;;4970629;28;20170;-46
2022/10/03 07:46:04;;;;;;;2.20;2.00;;;16.40;65.50;17.30;101915.00;;;;4951636;28;20292;-46
2022/10/03 07:48:49;;;;;;;4.07;2.10;;;16.40;65.60;17.30;101904.00;;;;4953247;29;20257;-45
2022/10/03 07:51:23;;;;;;;2.10;1.90;;;16.40;65.50;17.30;101925.00;;;;4953537;28;20192;-47
2022/10/03 07:53:58;;;;;;;3.40;2.17;;;16.40;65.50;17.40;101917.00;;;;4950867;29;20169;-46
2022/10/03 07:56:52;;;;;;;2.87;1.80;;;16.40;65.60;17.40;101911.00;;;;4951257;29;20970;-46
2022/10/03 07:59:57;;;;;;;2.70;1.90;;;16.40;65.70;17.30;101928.00;;;;4951794;29;20174;-45
2022/10/03 08:02:42;;;;;;;2.83;2.10;;;16.40;65.80;17.30;101928.00;;;;4967141;28;20178;-46
2022/10/03 08:05:25;;;;;;;2.33;1.87;;;16.40;65.90;17.30;101933.00;;;;4952801;29;20217;-45
2022/10/03 08:08:20;;;;;;;3.03;2.07;;;16.40;65.80;17.30;101931.00;;;;4951620;29;20190;-44
2022/10/03 08:11:29;;;;;;;3.23;1.97;;;16.40;65.80;17.30;101944.00;;;;4971171;28;20263;-46
2022/10/03 08:14:39;;;;;;;2.20;1.90;;;16.40;66.60;17.30;101939.00;;;;4952784;29;20181;-45
2022/10/03 08:17:23;;;;;;;4.00;2.17;;;16.40;65.90;17.30;101923.00;;;;4947344;28;20716;-45
2022/10/03 08:20:07;;;;;;;2.43;2.00;;;16.40;65.90;17.30;101941.00;;;;4952612;29;20165;-46
2022/10/03 08:22:57;;;;;;;2.77;2.10;;;16.40;66.00;17.30;101936.00;;;;4953349;29;20165;-46
2022/10/03 08:25:53;;;;;;;3.50;2.20;;;16.40;66.10;17.30;101944.00;;;;4952414;29;20213;-46
2022/10/03 08:28:33;;;;;;;4.33;2.13;;;16.40;66.40;17.30;101942.00;;;;4952564;29;20169;-44
2022/10/03 08:31:25;;;;;;;2.57;2.20;;;16.40;66.30;17.30;101947.00;;;;4951391;29;20595;-46
2022/10/03 08:34:33;;;;;;;11.37;2.20;;;16.40;66.70;17.30;101949.00;;;;4952345;29;20579;-45
2022/10/03 08:37:27;;;;;;;5.17;2.17;;;16.30;66.80;17.30;101944.00;;;;4940763;29;20210;-45
2022/10/03 08:40:20;;;;;;;3.50;2.23;;;16.40;67.00;17.30;101951.00;;;;4952212;29;20158;-45
2022/10/03 08:43:19;;;;;;;8.47;2.30;;;16.40;66.60;17.30;101957.00;;;;4952657;29;20166;-44
2022/10/03 08:46:33;;;;;;;5.63;2.47;;;16.40;67.00;17.30;101954.00;;;;4952406;29;20292;-45
2022/10/03 08:49:13;;;;;;;8.87;2.10;;;16.40;67.80;17.30;101952.00;;;;4945794;28;20539;-46
2022/10/03 08:52:09;;;;;;;4.00;2.20;;;16.40;68.20;17.30;101946.00;;;;4952794;29;20181;-46
2022/10/03 08:54:47;;;;;;;5.43;2.37;;;16.40;68.30;17.40;101948.00;;;;4950991;29;20166;-45
2022/10/03 08:58:09;;;;;;;4.67;2.20;;;16.40;68.90;17.40;101941.00;;;;4970114;28;20200;-46
2022/10/03 09:00:58;;;;;;;5.57;2.33;;;16.50;68.90;17.30;101954.00;;;;4971497;28;20185;-46
2022/10/03 09:04:04;;;;;;;10.07;2.40;;;16.50;69.00;17.40;101912.00;;;;4951337;28;20205;-47
2022/10/03 09:07:04;;;;;;;12.67;2.53;;;16.50;69.00;17.30;101953.00;;;;4970915;28;20204;-46
2022/10/03 09:10:02;;;;;;;10.53;2.53;;;16.50;68.40;17.30;101935.00;;;;4971509;28;20184;-44
2022/10/03 09:12:41;;;;;;;11.47;3.37;;;16.50;68.30;17.30;101932.00;;;;4970382;28;20224;-45
2022/10/03 09:15:40;;;;;;;10.93;4.27;;;16.50;68.30;17.30;101936.00;;;;4971429;28;20259;-46
2022/10/03 09:18:30;;;;;;;8.10;3.97;;;16.50;68.60;17.30;101935.00;;;;4971489;28;20169;-46
2022/10/03 09:21:17;;;;;;;7.00;3.40;;;16.40;68.40;17.30;101940.00;;;;4971319;28;20212;-46
2022/10/03 09:24:25;;;;;;;5.17;3.00;;;16.40;68.20;17.30;101936.00;;;;4970131;28;20420;-48
2022/10/03 09:27:17;;;;;;;6.77;2.90;;;16.40;68.30;17.30;101936.00;;;;4969881;28;20240;-47
2022/10/03 09:30:21;;;;;;;8.13;3.13;;;16.50;68.30;17.30;101945.00;;;;4970148;28;20158;-45
2022/10/03 09:33:05;;;;;;;6.53;2.80;;;16.40;68.20;17.30;101951.00;;;;4971695;28;20161;-45
2022/10/03 09:36:00;;;;;;;5.33;2.70;;;16.40;68.20;17.30;101945.00;;;;4971241;28;20256;-44
2022/10/03 09:38:54;;;;;;;4.17;2.70;;;16.40;68.00;17.30;101938.00;;;;4970039;28;20173;-45
2022/10/03 09:41:47;;;;;;;5.17;2.80;;;16.40;68.20;17.40;101945.00;;;;4970474;28;20646;-44
2022/10/03 09:44:35;;;;;;;3.03;2.37;;;16.40;68.00;17.30;101931.00;;;;4970563;28;20161;-44
2022/10/03 09:47:36;;;;;;;4.80;2.50;;;16.40;68.10;17.30;101934.00;;;;4970403;28;20482;-44
2022/10/03 09:50:35;;;;;;;6.47;2.50;;;16.40;68.00;17.30;101936.00;;;;4970001;28;20176;-46
2022/10/03 09:53:31;;;;;;;4.30;2.33;;;16.40;68.00;17.30;101934.00;;;;4969621;28;20622;-46
2022/10/03 09:56:25;;;;;;;4.47;2.20;;;16.40;68.10;17.30;101924.00;;;;4969478;28;20213;-46
2022/10/03 09:59:46;;;;;;;2.77;2.13;;;16.40;68.00;17.40;101923.00;;;;4971480;28;20560;-45
2022/10/03 10:02:56;;;;;;;3.40;2.30;;;16.50;68.10;17.40;101918.00;;;;4969382;28;20184;-46
2022/10/03 10:06:25;;;;;;;3.53;2.53;;;16.40;68.00;17.40;101911.00;;;;4970153;28;20204;-47
2022/10/03 10:09:02;;;;;;;4.43;2.30;;;16.50;68.20;17.30;101910.00;;;;4954255;28;20197;-45
2022/10/03 10:11:48;;;;;;;3.33;2.40;;;16.50;68.30;17.40;101910.00;;;;4970674;28;20173;-44
2022/10/03 10:14:46;;;;;;;3.13;2.20;;;16.50;68.20;17.40;101911.00;;;;4969186;28;20172;-45
2022/10/03 10:18:10;;;;;;;4.03;2.10;;;16.50;68.40;17.40;101917.00;;;;4969111;28;20189;-46
2022/10/03 10:21:34;;;;;;;2.60;2.10;;;16.50;68.30;17.40;101913.00;;;;4969875;28;20157;-45
2022/10/03 10:24:39;;;;;;;2.40;2.03;;;16.50;68.30;17.40;101913.00;;;;4969652;28;20168;-46
2022/10/03 10:27:45;;;;;;;2.87;2.10;;;16.50;68.30;17.40;101913.00;;;;4970407;28;20211;-45
2022/10/03 10:30:49;;;;;;;2.23;1.90;;;16.50;68.30;17.40;101907.00;;;;4970809;28;20178;-46
2022/10/03 10:33:29;;;;;;;2.63;2.07;;;16.50;68.30;17.40;101909.00;;;;4970229;28;20172;-46
2022/10/03 10:36:51;;;;;;;4.77;2.30;;;16.50;68.60;17.40;101907.00;;;;4970036;28;20216;-46
2022/10/03 10:39:59;;;;;;;2.93;2.00;;;16.50;68.60;17.40;101911.00;;;;4946403;28;20185;-45
2022/10/03 10:43:05;;;;;;;2.33;2.00;;;16.60;68.60;17.50;101912.00;;;;4948876;28;20240;-46
2022/10/03 10:46:18;;;;;;;2.57;2.30;;;16.50;68.60;17.50;101909.00;;;;4969887;28;20224;-46
2022/10/03 10:49:41;;;;;;;2.77;2.00;;;16.60;68.80;17.50;101910.00;;;;4970229;28;20173;-46
2022/10/03 10:52:41;;;;;;;2.43;2.10;;;16.60;68.70;17.50;101909.00;;;;4971657;28;20181;-46
2022/10/03 10:56:12;;;;;;;3.33;2.13;;;16.60;68.80;17.50;101895.00;;;;4968813;28;20204;-46
2022/10/03 10:59:11;;;;;;;2.70;2.00;;;16.60;68.80;17.50;101905.00;;;;4974406;28;20227;-47
2022/10/03 11:02:17;;;;;;;2.60;2.10;;;16.60;68.80;17.50;101910.00;;;;4969314;28;20185;-46
2022/10/03 11:05:19;;;;;;;2.30;2.07;;;16.60;68.80;17.50;101896.00;;;;4970176;28;20170;-45
2022/10/03 11:08:13;;;;;;;3.17;2.00;;;16.60;68.90;17.50;101896.00;;;;4970033;28;20165;-46
2022/10/03 11:11:27;;;;;;;2.90;1.93;;;16.60;68.90;17.60;101895.00;;;;4972104;28;20310;-45
2022/10/03 11:14:20;;;;;;;3.73;1.87;;;16.70;69.00;17.60;101906.00;;;;4964142;28;20643;-45
2022/10/03 11:17:16;;;;;;;2.73;2.00;;;16.70;69.10;17.60;101901.00;;;;4972223;28;20196;-47
2022/10/03 11:20:14;;;;;;;3.07;2.10;;;16.70;69.20;17.30;101905.00;;;;4972574;28;20166;-46
2022/10/03 11:23:21;;;;;;;2.40;1.90;;;16.70;69.40;17.60;101897.00;;;;4959087;28;20197;-46
2022/10/03 11:26:01;;;;;;;2.13;1.70;;;16.70;70.20;17.60;101887.00;;;;4959529;28;20243;-46
2022/10/03 11:28:51;;;;;;;2.43;1.90;;;16.70;69.40;17.60;101896.00;;;;4973405;28;20176;-45
2022/10/03 11:32:17;;;;;;;2.43;2.00;;;16.70;69.40;17.60;101896.00;;;;4973094;28;20173;-45
2022/10/03 11:35:23;;;;;;;1.83;1.73;;;16.70;69.60;17.70;101896.00;;;;4973219;28;20173;-45
2022/10/03 11:38:12;;;;;;;11.37;2.23;;;16.70;69.60;17.60;101890.00;;;;4971172;28;20181;-45
2022/10/03 11:41:07;;;;;;;8.73;2.30;;;16.80;70.10;17.70;101890.00;;;;4901719;28;20189;-46
2022/10/03 11:44:30;;;;;;;6.67;2.10;;;16.90;70.40;17.70;101881.00;;;;4979818;28;20283;-46
2022/10/03 11:47:11;;;;;;;6.77;2.20;;;16.90;70.20;17.70;101870.00;;;;4931782;28;20227;-46
2022/10/03 11:49:59;;;;;;;6.23;2.30;;;16.90;70.20;17.80;101876.00;;;;4990470;28;20192;-46
2022/10/03 11:52:41;;;;;;;3.37;2.00;;;16.90;70.20;17.70;101878.00;;;;4986291;28;20177;-46
2022/10/03 11:55:40;;;;;;;4.93;2.00;;;16.90;70.00;17.80;101873.00;;;;4974407;28;20297;-46
2022/10/03 11:58:45;;;;;;;6.70;2.27;;;16.90;69.80;17.80;101871.00;;;;4967957;28;20197;-47
2022/10/03 12:01:34;;;;;;;3.97;2.27;;;16.90;70.50;17.80;101879.00;;;;4963767;28;20194;-45
2022/10/03 12:04:50;;;;;;;3.37;2.03;;;17.00;70.40;17.90;101879.00;;;;4967464;28;20229;-45
2022/10/03 12:11:02;;;;;;;4.37;1.97;;;17.20;70.30;18.00;101865.00;;;;4957042;29;20210;-45
2022/10/03 12:13:51;;;;;;;5.27;2.03;;;17.30;70.30;18.10;101864.00;;;;4970001;28;20216;-46
2022/10/03 12:16:29;;;;;;;7.97;2.13;;;17.40;70.00;18.10;101854.00;;;;4968168;28;20207;-47
2022/10/03 12:19:12;;;;;;;6.90;2.27;;;17.60;69.90;17.90;101854.00;;;;4961967;28;20650;-44
2022/10/03 12:22:18;;;;;;;9.67;2.20;;;17.60;69.80;18.30;101862.00;;;;4952839;28;20185;-46
2022/10/03 12:24:44;;;;;;;6.17;2.10;;;17.70;69.60;18.30;101857.00;;;;4964894;28;20175;-45
2022/10/03 12:27:14;;;;;;;5.00;2.17;;;17.80;69.80;18.40;101846.00;;;;4967271;28;20274;-46
2022/10/03 12:29:44;;;;;;;5.13;2.23;;;17.80;69.70;18.50;101818.00;;;;4952488;29;20663;-45
2022/10/03 12:32:34;;;;;;;6.27;2.07;;;17.90;69.80;18.50;101835.00;;;;4951563;29;20504;-45
2022/10/03 12:35:31;;;;;;;5.07;2.10;;;17.90;69.60;18.60;101846.00;;;;4965983;28;20264;-45
2022/10/03 12:38:17;;;;;;;4.57;2.20;;;18.00;69.90;18.60;101852.00;;;;4952080;28;20240;-45
2022/10/03 12:40:52;;;;;;;3.43;1.87;;;18.00;69.80;18.60;101834.00;;;;4940931;29;20191;-45
2022/10/03 12:44:03;;;;;;;3.10;2.10;;;18.00;69.60;18.70;101843.00;;;;4950991;29;20161;-44
2022/10/03 12:46:56;;;;;;;4.53;1.90;;;18.10;69.60;18.80;101844.00;;;;4963896;28;20215;-45
2022/10/03 12:50:07;;;;;;;4.20;1.80;;;18.10;69.60;18.80;101848.00;;;;4966053;28;20184;-45
2022/10/03 12:52:39;;;;;;;3.67;2.00;;;18.10;69.60;18.80;101834.00;;;;4944917;29;20658;-45
2022/10/03 12:55:18;;;;;;;3.27;2.07;;;18.10;69.50;18.80;101843.00;;;;4966417;28;20209;-44
2022/10/03 12:57:56;;;;;;;5.33;2.10;;;18.20;69.50;18.90;101832.00;;;;4967059;28;20188;-45
2022/10/03 13:00:25;;;;;;;2.40;1.83;;;18.30;69.60;18.90;101831.00;;;;4952068;28;20177;-46
2022/10/03 13:03:16;;;;;;;3.40;1.90;;;18.20;69.40;19.00;101836.00;;;;4966809;28;20208;-45